createdAt,value
2017-03-03T00:00:53.306Z,63.75
2017-03-03T00:01:53.273Z,64.13
2017-03-03T00:02:53.267Z,63.94
2017-03-03T00:03:53.224Z,64.04
2017-03-03T00:04:53.207Z,64.23
2017-03-03T00:05:53.208Z,64.13
2017-03-03T00:06:53.158Z,63.75
2017-03-03T00:07:52.763Z,63.57
2017-03-03T00:08:53.116Z,63.57
2017-03-03T00:09:53.100Z,63.38
2017-03-03T00:10:53.070Z,63.38
2017-03-03T00:11:53.046Z,63.28
2017-03-03T00:12:53.038Z,63.19
2017-03-03T00:13:53.004Z,63.28
2017-03-03T00:14:52.992Z,63.38
2017-03-03T00:15:52.979Z,63.38
2017-03-03T00:16:52.947Z,63.19
2017-03-03T00:17:52.926Z,63.28
2017-03-03T00:18:52.900Z,63.28
2017-03-03T00:19:52.887Z,63.75
2017-03-03T00:20:52.853Z,64.13
2017-03-03T00:21:52.444Z,64.41
2017-03-03T00:22:52.801Z,64.51
2017-03-03T00:23:52.402Z,64.13
2017-03-03T00:24:52.752Z,64.32
2017-03-03T00:25:52.753Z,64.51
2017-03-03T00:26:52.734Z,64.04
2017-03-03T00:27:52.689Z,63.75
2017-03-03T00:28:52.685Z,63.75
2017-03-03T00:29:52.671Z,64.41
2017-03-03T00:30:52.633Z,64.51
2017-03-03T00:31:52.617Z,64.6
2017-03-03T00:32:52.593Z,64.6
2017-03-03T00:33:52.562Z,64.04
2017-03-03T00:34:52.156Z,64.23
2017-03-03T00:35:52.150Z,64.13
2017-03-03T00:36:52.493Z,64.23
2017-03-03T00:37:52.470Z,64.23
2017-03-03T00:38:52.070Z,64.23
2017-03-03T00:39:52.419Z,63.75
2017-03-03T00:40:52.401Z,63.38
2017-03-03T00:41:52.376Z,63.75
2017-03-03T00:42:52.372Z,63.66
2017-03-03T00:43:52.352Z,63.75
2017-03-03T00:44:52.323Z,64.13
2017-03-03T00:45:52.307Z,63.66
2017-03-03T00:46:52.265Z,64.23
2017-03-03T00:47:52.248Z,64.13
2017-03-03T00:48:52.229Z,63.75
2017-03-03T00:49:52.212Z,64.23
2017-03-03T00:50:52.179Z,64.04
2017-03-03T00:51:52.174Z,64.13
2017-03-03T00:52:52.138Z,64.04
2017-03-03T00:53:52.124Z,64.23
2017-03-03T00:54:52.100Z,63.66
2017-03-03T00:55:52.088Z,63.94
2017-03-03T00:56:52.063Z,63.38
2017-03-03T00:57:52.057Z,63.28
2017-03-03T00:58:52.044Z,63.19
2017-03-03T00:59:51.984Z,63
2017-03-03T01:00:51.965Z,63.19
2017-03-03T01:01:51.555Z,63.38
2017-03-03T01:02:51.935Z,62.53
2017-03-03T01:03:51.515Z,62.91
2017-03-03T01:04:51.888Z,62.81
2017-03-03T01:05:51.480Z,62.43
2017-03-03T01:06:51.828Z,62.47
2017-03-03T01:07:51.823Z,62.37
2017-03-03T01:08:51.803Z,62.43
2017-03-03T01:09:51.785Z,62.65
2017-03-03T01:10:51.753Z,62.91
2017-03-03T01:11:51.721Z,62.65
2017-03-03T01:12:51.697Z,63.47
2017-03-03T01:13:51.710Z,63.19
2017-03-03T01:14:51.659Z,63.19
2017-03-03T01:15:51.649Z,63
2017-03-03T01:16:51.630Z,63.09
2017-03-03T01:17:51.611Z,63
2017-03-03T01:18:51.574Z,63
2017-03-03T01:19:51.556Z,63
2017-03-03T01:20:51.538Z,63.09
2017-03-03T01:21:51.516Z,63.28
2017-03-03T01:22:51.497Z,63.19
2017-03-03T01:23:51.477Z,63.19
2017-03-03T01:24:51.438Z,62.81
2017-03-03T01:25:51.422Z,62.81
2017-03-03T01:26:51.419Z,62.72
2017-03-03T01:27:50.997Z,62.72
2017-03-03T01:28:51.355Z,62.37
2017-03-03T01:29:51.343Z,62.28
2017-03-03T01:30:51.313Z,62.47
2017-03-03T01:31:51.289Z,62.28
2017-03-03T01:32:50.879Z,62.28
2017-03-03T01:33:51.256Z,62.18
2017-03-03T01:34:51.221Z,62.18
2017-03-03T01:35:51.232Z,62.18
2017-03-03T01:36:51.179Z,62.09
2017-03-03T01:37:51.171Z,62.18
2017-03-03T01:38:51.134Z,62.28
2017-03-03T01:39:51.113Z,61.99
2017-03-03T01:40:51.096Z,61.99
2017-03-03T01:41:51.076Z,62.09
2017-03-03T01:42:51.065Z,62.09
2017-03-03T01:43:51.031Z,62.28
2017-03-03T01:44:51.010Z,62.09
2017-03-03T01:45:50.617Z,62.37
2017-03-03T01:46:50.985Z,62.84
2017-03-03T01:47:50.957Z,62.84
2017-03-03T01:48:50.934Z,62.25
2017-03-03T01:49:50.905Z,62.18
2017-03-03T01:50:50.895Z,62.18
2017-03-03T01:51:50.864Z,62.37
2017-03-03T01:52:50.854Z,62.37
2017-03-03T01:53:50.828Z,62.37
2017-03-03T01:54:50.813Z,62.75
2017-03-03T01:55:50.783Z,62.72
2017-03-03T01:56:50.779Z,62.81
2017-03-03T01:57:50.741Z,62.94
2017-03-03T01:58:50.728Z,63
2017-03-03T01:59:50.707Z,62.72
2017-03-03T02:00:50.682Z,62.84
2017-03-03T02:01:50.672Z,62.84
2017-03-03T02:02:50.630Z,62.94
2017-03-03T02:03:50.625Z,62.84
2017-03-03T02:04:50.590Z,62.72
2017-03-03T02:05:50.569Z,62.28
2017-03-03T02:06:50.562Z,62.09
2017-03-03T02:07:50.541Z,62.28
2017-03-03T02:08:50.504Z,62.18
2017-03-03T02:09:50.486Z,62.09
2017-03-03T02:10:50.472Z,62.28
2017-03-03T02:11:50.453Z,61.99
2017-03-03T02:12:50.438Z,62.28
2017-03-03T02:13:50.417Z,61.71
2017-03-03T02:14:50.399Z,62.28
2017-03-03T02:15:49.985Z,61.99
2017-03-03T02:16:49.964Z,62.28
2017-03-03T02:17:50.343Z,61.71
2017-03-03T02:18:50.293Z,61.71
2017-03-03T02:19:50.279Z,61.81
2017-03-03T02:20:50.262Z,61.52
2017-03-03T02:21:50.240Z,61.24
2017-03-03T02:22:50.236Z,60.96
2017-03-03T02:23:50.199Z,60.96
2017-03-03T02:24:50.183Z,60.86
2017-03-03T02:25:50.177Z,61.24
2017-03-03T02:26:50.132Z,61.33
2017-03-03T02:27:50.110Z,61.15
2017-03-03T02:28:50.100Z,61.43
2017-03-03T02:29:50.090Z,61.15
2017-03-03T02:30:50.076Z,61.33
2017-03-03T02:31:50.052Z,61.43
2017-03-03T02:32:50.024Z,61.43
2017-03-03T02:33:50.012Z,61.62
2017-03-03T02:34:49.978Z,61.62
2017-03-03T02:35:49.950Z,61.71
2017-03-03T02:36:49.938Z,62.09
2017-03-03T02:37:49.921Z,61.81
2017-03-03T02:38:49.900Z,61.33
2017-03-03T02:39:49.877Z,61.33
2017-03-03T02:40:49.855Z,61.52
2017-03-03T02:41:49.822Z,61.81
2017-03-03T02:42:49.811Z,61.71
2017-03-03T02:43:49.781Z,61.62
2017-03-03T02:44:49.790Z,61.43
2017-03-03T02:45:49.787Z,61.43
2017-03-03T02:46:49.732Z,61.33
2017-03-03T02:47:49.704Z,60.96
2017-03-03T02:48:49.693Z,60.86
2017-03-03T02:49:49.674Z,60.86
2017-03-03T02:50:49.656Z,61.05
2017-03-03T02:51:49.232Z,60.96
2017-03-03T02:52:49.608Z,60.49
2017-03-03T02:53:49.603Z,60.39
2017-03-03T02:54:49.564Z,60.21
2017-03-03T02:55:49.535Z,59.83
2017-03-03T02:56:49.519Z,59.55
2017-03-03T02:57:49.505Z,59.55
2017-03-03T02:58:49.479Z,59.64
2017-03-03T02:59:49.460Z,59.74
2017-03-03T03:00:49.447Z,59.64
2017-03-03T03:01:49.421Z,59.55
2017-03-03T03:02:49.413Z,59.55
2017-03-03T03:03:49.387Z,59.45
2017-03-03T03:04:49.355Z,60.21
2017-03-03T03:05:49.343Z,60.58
2017-03-03T03:06:49.323Z,60.21
2017-03-03T03:07:49.299Z,60.11
2017-03-03T03:08:49.274Z,60.11
2017-03-03T03:09:49.265Z,60.02
2017-03-03T03:10:49.246Z,60.96
2017-03-03T03:11:49.228Z,60.86
2017-03-03T03:12:49.208Z,60.86
2017-03-03T03:13:49.184Z,60.96
2017-03-03T03:14:49.151Z,60.49
2017-03-03T03:15:49.147Z,60.21
2017-03-03T03:16:49.123Z,60.58
2017-03-03T03:17:49.100Z,60.58
2017-03-03T03:18:49.102Z,60.39
2017-03-03T03:19:49.059Z,60.77
2017-03-03T03:20:49.053Z,60.58
2017-03-03T03:21:49.013Z,61.24
2017-03-03T03:22:49.003Z,61.24
2017-03-03T03:23:48.988Z,61.43
2017-03-03T03:24:48.961Z,61.43
2017-03-03T03:25:48.936Z,61.24
2017-03-03T03:26:48.909Z,61.24
2017-03-03T03:27:48.901Z,61.52
2017-03-03T03:28:48.875Z,61.43
2017-03-03T03:29:48.855Z,61.33
2017-03-03T03:30:48.833Z,61.24
2017-03-03T03:31:48.817Z,61.05
2017-03-03T03:32:48.780Z,61.15
2017-03-03T03:33:48.779Z,61.15
2017-03-03T03:34:48.751Z,60.86
2017-03-03T03:35:48.733Z,60.86
2017-03-03T03:36:48.713Z,60.49
2017-03-03T03:37:48.681Z,60.3
2017-03-03T03:38:48.661Z,60.68
2017-03-03T03:39:48.640Z,60.49
2017-03-03T03:40:48.637Z,60.58
2017-03-03T03:41:48.607Z,60.21
2017-03-03T03:42:48.586Z,60.3
2017-03-03T03:43:48.582Z,60.21
2017-03-03T03:44:48.537Z,60.21
2017-03-03T03:45:48.514Z,59.83
2017-03-03T03:46:48.502Z,60.21
2017-03-03T03:47:48.476Z,60.21
2017-03-03T03:48:48.485Z,60.11
2017-03-03T03:49:48.449Z,60.02
2017-03-03T03:50:48.434Z,59.83
2017-03-03T03:51:48.405Z,60.02
2017-03-03T03:52:48.372Z,59.74
2017-03-03T03:53:48.371Z,59.55
2017-03-03T03:54:48.335Z,59.64
2017-03-03T03:55:48.329Z,59.74
2017-03-03T03:56:48.309Z,59.74
2017-03-03T03:57:48.279Z,59.55
2017-03-03T03:58:48.267Z,59.55
2017-03-03T03:59:48.243Z,59.55
2017-03-03T04:00:48.240Z,59.55
2017-03-03T04:01:48.195Z,59.64
2017-03-03T04:02:48.194Z,59.64
2017-03-03T04:03:48.168Z,59.45
2017-03-03T04:04:48.135Z,59.55
2017-03-03T04:05:48.118Z,59.55
2017-03-03T04:06:48.103Z,59.74
2017-03-03T04:07:48.108Z,59.64
2017-03-03T04:08:48.067Z,59.64
2017-03-03T04:09:48.048Z,59.64
2017-03-03T04:10:48.024Z,59.83
2017-03-03T04:11:47.991Z,59.55
2017-03-03T04:12:47.983Z,59.64
2017-03-03T04:13:47.989Z,59.74
2017-03-03T04:14:47.935Z,58.98
2017-03-03T04:15:47.911Z,59.08
2017-03-03T04:16:47.892Z,58.7
2017-03-03T04:17:47.883Z,59.08
2017-03-03T04:18:47.856Z,58.89
2017-03-03T04:19:47.866Z,58.54
2017-03-03T04:20:47.818Z,58.63
2017-03-03T04:21:47.796Z,58.54
2017-03-03T04:22:47.788Z,58.54
2017-03-03T04:23:47.779Z,58.35
2017-03-03T04:24:47.744Z,58.82
2017-03-03T04:25:47.740Z,58.98
2017-03-03T04:26:47.706Z,58.98
2017-03-03T04:27:47.706Z,58.8
2017-03-03T04:28:47.669Z,59.08
2017-03-03T04:29:47.633Z,58.8
2017-03-03T04:30:47.238Z,59.17
2017-03-03T04:31:47.603Z,58.98
2017-03-03T04:32:47.587Z,58.7
2017-03-03T04:33:47.566Z,58.98
2017-03-03T04:34:47.159Z,58.8
2017-03-03T04:35:47.539Z,58.8
2017-03-03T04:36:47.507Z,58.98
2017-03-03T04:37:47.492Z,58.7
2017-03-03T04:38:47.468Z,58.82
2017-03-03T04:39:47.439Z,58.45
2017-03-03T04:40:47.432Z,58.54
2017-03-03T04:41:47.395Z,58.26
2017-03-03T04:42:47.403Z,58.16
2017-03-03T04:43:47.363Z,58.35
2017-03-03T04:44:47.352Z,57.97
2017-03-03T04:45:47.319Z,58.16
2017-03-03T04:46:47.304Z,57.41
2017-03-03T04:47:47.289Z,57.31
2017-03-03T04:48:47.273Z,57.5
2017-03-03T04:49:47.252Z,57.22
2017-03-03T04:50:47.231Z,57.12
2017-03-03T04:51:47.206Z,57.5
2017-03-03T04:52:47.178Z,57.41
2017-03-03T04:53:47.167Z,57.6
2017-03-03T04:54:47.166Z,57.78
2017-03-03T04:55:47.169Z,57.5
2017-03-03T04:56:47.107Z,57.5
2017-03-03T04:57:47.084Z,57.5
2017-03-03T04:58:47.076Z,57.31
2017-03-03T04:59:47.073Z,57.22
2017-03-03T05:00:47.029Z,57.12
2017-03-03T05:01:47.006Z,57.41
2017-03-03T05:02:46.993Z,57.31
2017-03-03T05:03:46.984Z,57.22
2017-03-03T05:04:46.954Z,58.07
2017-03-03T05:05:46.957Z,57.78
2017-03-03T05:06:46.929Z,58.07
2017-03-03T05:07:46.901Z,57.69
2017-03-03T05:08:46.884Z,58.07
2017-03-03T05:09:46.851Z,58.26
2017-03-03T05:10:46.843Z,58.26
2017-03-03T05:11:46.818Z,57.97
2017-03-03T05:12:46.808Z,57.69
2017-03-03T05:13:46.392Z,57.88
2017-03-03T05:14:46.751Z,57.78
2017-03-03T05:15:46.737Z,58.26
2017-03-03T05:16:46.718Z,58.35
2017-03-03T05:17:46.692Z,57.88
2017-03-03T05:18:46.683Z,57.5
2017-03-03T05:19:46.677Z,57.6
2017-03-03T05:20:46.646Z,57.69
2017-03-03T05:21:46.628Z,57.5
2017-03-03T05:22:46.608Z,57.5
2017-03-03T05:23:46.587Z,57.6
2017-03-03T05:24:46.566Z,57.6
2017-03-03T05:25:46.544Z,57.5
2017-03-03T05:26:46.520Z,57.5
2017-03-03T05:27:46.500Z,57.88
2017-03-03T05:28:46.476Z,57.97
2017-03-03T05:29:46.463Z,57.78
2017-03-03T05:30:46.440Z,57.69
2017-03-03T05:31:46.434Z,57.31
2017-03-03T05:32:46.416Z,57.31
2017-03-03T05:33:46.391Z,58.16
2017-03-03T05:34:46.371Z,57.5
2017-03-03T05:35:46.355Z,57.12
2017-03-03T05:36:46.342Z,57.6
2017-03-03T05:37:46.310Z,57.69
2017-03-03T05:38:46.278Z,57.5
2017-03-03T05:39:46.273Z,57.34
2017-03-03T05:40:46.243Z,57.43
2017-03-03T05:41:46.233Z,57.62
2017-03-03T05:42:46.198Z,57.97
2017-03-03T05:43:46.174Z,57.62
2017-03-03T05:44:46.168Z,57.15
2017-03-03T05:45:46.136Z,57.34
2017-03-03T05:46:46.126Z,57.62
2017-03-03T05:47:46.102Z,57.72
2017-03-03T05:48:46.086Z,58.57
2017-03-03T05:49:46.069Z,57.72
2017-03-03T05:50:45.665Z,58.1
2017-03-03T05:51:46.016Z,58.19
2017-03-03T05:52:46.018Z,58.29
2017-03-03T05:53:45.984Z,58.38
2017-03-03T05:54:45.965Z,58.66
2017-03-03T05:55:45.944Z,58.1
2017-03-03T05:56:45.943Z,58.29
2017-03-03T05:57:45.907Z,58.29
2017-03-03T05:58:45.872Z,58.57
2017-03-03T05:59:45.849Z,58.38
2017-03-03T06:00:45.859Z,58.19
2017-03-03T06:01:45.814Z,58.47
2017-03-03T06:02:45.794Z,58.38
2017-03-03T06:03:45.774Z,58.66
2017-03-03T06:04:45.754Z,58.95
2017-03-03T06:05:45.752Z,59.04
2017-03-03T06:06:45.725Z,59.33
2017-03-03T06:07:45.729Z,59.42
2017-03-03T06:08:45.678Z,59.7
2017-03-03T06:09:45.651Z,59.8
2017-03-03T06:10:45.645Z,59.33
2017-03-03T06:11:45.622Z,59.8
2017-03-03T06:12:45.207Z,59.61
2017-03-03T06:13:45.576Z,59.8
2017-03-03T06:14:45.557Z,59.7
2017-03-03T06:15:45.526Z,59.8
2017-03-03T06:16:45.522Z,59.99
2017-03-03T06:17:45.515Z,60.08
2017-03-03T06:18:45.478Z,60.36
2017-03-03T06:19:45.456Z,60.74
2017-03-03T06:20:45.436Z,61.21
2017-03-03T06:21:45.406Z,60.93
2017-03-03T06:22:45.392Z,60.27
2017-03-03T06:23:45.369Z,60.55
2017-03-03T06:24:45.351Z,60.46
2017-03-03T06:25:45.339Z,60.27
2017-03-03T06:26:45.306Z,60.17
2017-03-03T06:27:45.298Z,60.27
2017-03-03T06:28:45.280Z,60.74
2017-03-03T06:29:45.257Z,60.74
2017-03-03T06:30:45.233Z,61.02
2017-03-03T06:31:45.211Z,60.64
2017-03-03T06:32:44.796Z,61.02
2017-03-03T06:33:45.163Z,60.27
2017-03-03T06:34:45.153Z,60.55
2017-03-03T06:35:45.129Z,60.64
2017-03-03T06:36:45.110Z,60.74
2017-03-03T06:37:45.116Z,60.93
2017-03-03T06:38:45.074Z,60.83
2017-03-03T06:39:45.057Z,60.74
2017-03-03T06:40:45.022Z,61.11
2017-03-03T06:41:45.022Z,61.3
2017-03-03T06:42:44.995Z,61.3
2017-03-03T06:43:44.960Z,61.4
2017-03-03T06:44:44.945Z,61.49
2017-03-03T06:45:44.924Z,61.58
2017-03-03T06:46:44.915Z,61.3
2017-03-03T06:47:44.891Z,61.21
2017-03-03T06:48:44.881Z,60.21
2017-03-03T06:49:44.851Z,60.49
2017-03-03T06:50:44.831Z,61.24
2017-03-03T06:51:44.813Z,61.15
2017-03-03T06:52:44.797Z,61.61
2017-03-03T06:53:44.757Z,61.87
2017-03-03T06:54:44.743Z,61.96
2017-03-03T06:55:44.735Z,62.06
2017-03-03T06:56:44.705Z,62.43
2017-03-03T06:57:44.677Z,62.43
2017-03-03T06:58:44.658Z,62.43
2017-03-03T06:59:44.648Z,62.72
2017-03-03T07:00:44.627Z,63
2017-03-03T07:01:44.613Z,63.1
2017-03-03T07:02:44.579Z,63.66
2017-03-03T07:03:44.555Z,63
2017-03-03T07:04:44.535Z,63.38
2017-03-03T07:05:44.539Z,63.1
2017-03-03T07:06:44.500Z,63.7
2017-03-03T07:07:44.492Z,64.23
2017-03-03T07:08:44.473Z,63.95
2017-03-03T07:09:44.435Z,63.57
2017-03-03T07:10:44.425Z,63.85
2017-03-03T07:11:44.409Z,64.42
2017-03-03T07:12:44.374Z,64.51
2017-03-03T07:13:44.355Z,64.7
2017-03-03T07:14:44.337Z,64.61
2017-03-03T07:15:44.314Z,64.23
2017-03-03T07:16:44.296Z,64.36
2017-03-03T07:17:44.291Z,64.07
2017-03-03T07:18:44.279Z,63.7
2017-03-03T07:19:44.244Z,64.07
2017-03-03T07:20:44.229Z,64.83
2017-03-03T07:21:43.811Z,64.45
2017-03-03T07:22:44.192Z,64.83
2017-03-03T07:23:44.166Z,65.01
2017-03-03T07:24:44.149Z,65.11
2017-03-03T07:25:44.118Z,64.92
2017-03-03T07:26:44.098Z,64.83
2017-03-03T07:27:43.698Z,64.92
2017-03-03T07:28:44.071Z,64.83
2017-03-03T07:29:44.048Z,65.3
2017-03-03T07:30:44.018Z,65.11
2017-03-03T07:31:43.999Z,64.83
2017-03-03T07:32:43.986Z,65.3
2017-03-03T07:33:43.966Z,65.01
2017-03-03T07:34:43.956Z,65.2
2017-03-03T07:35:43.544Z,65.39
2017-03-03T07:36:43.901Z,65.01
2017-03-03T07:37:43.894Z,64.64
2017-03-03T07:38:43.863Z,65.3
2017-03-03T07:39:43.842Z,65.01
2017-03-03T07:40:43.822Z,65.3
2017-03-03T07:41:43.796Z,64.73
2017-03-03T07:42:43.796Z,64.54
2017-03-03T07:43:43.765Z,64.58
2017-03-03T07:44:43.746Z,65.14
2017-03-03T07:45:43.722Z,65.14
2017-03-03T07:46:43.707Z,64.64
2017-03-03T07:47:43.696Z,65.23
2017-03-03T07:48:43.662Z,65.11
2017-03-03T07:49:43.659Z,65.61
2017-03-03T07:50:43.834Z,65.58
2017-03-03T07:51:43.631Z,65.39
2017-03-03T07:52:43.587Z,65.52
2017-03-03T07:53:43.578Z,65.86
2017-03-03T07:54:43.556Z,65.67
2017-03-03T07:55:43.544Z,65.71
2017-03-03T07:56:56.901Z,66.37
2017-03-03T07:57:43.507Z,67.09
2017-03-03T07:58:43.487Z,67.19
2017-03-03T07:59:43.471Z,67.38
2017-03-03T08:00:43.449Z,67.09
2017-03-03T08:01:43.640Z,67.19
2017-03-03T08:02:43.636Z,67
2017-03-03T08:03:43.386Z,67.57
2017-03-03T08:04:43.385Z,67.75
2017-03-03T08:05:43.352Z,67.85
2017-03-03T08:06:43.339Z,68.7
2017-03-03T08:07:43.545Z,68.79
2017-03-03T08:08:43.313Z,68.6
2017-03-03T08:09:43.272Z,69.17
2017-03-03T08:10:43.250Z,69.83
2017-03-03T08:11:42.852Z,70.11
2017-03-03T08:12:43.225Z,70.11
2017-03-03T08:13:43.207Z,69.83
2017-03-03T08:14:43.170Z,70.02
2017-03-03T08:15:43.149Z,69.92
2017-03-03T08:16:43.155Z,70.2
2017-03-03T08:17:43.138Z,70.3
2017-03-03T08:18:43.104Z,69.73
2017-03-03T08:19:43.087Z,69.45
2017-03-03T08:20:43.060Z,69.92
2017-03-03T08:21:43.047Z,69.67
2017-03-03T08:22:43.035Z,68.92
2017-03-03T08:23:43.011Z,69.2
2017-03-03T08:24:43.215Z,68.44
2017-03-03T08:25:42.983Z,67.88
2017-03-03T08:26:42.955Z,67.82
2017-03-03T08:27:42.938Z,67.82
2017-03-03T08:28:42.921Z,67.63
2017-03-03T08:29:42.895Z,68.29
2017-03-03T08:30:42.878Z,68.48
2017-03-03T08:31:42.868Z,68.39
2017-03-03T08:32:42.865Z,68.48
2017-03-03T08:33:42.848Z,68.95
2017-03-03T08:34:42.816Z,68.95
2017-03-03T08:35:42.999Z,68.2
2017-03-03T08:36:42.785Z,69.81
2017-03-03T08:37:42.769Z,70.09
2017-03-03T08:38:42.749Z,69.81
2017-03-03T08:39:42.735Z,70.47
2017-03-03T08:40:42.724Z,70.94
2017-03-03T08:41:42.700Z,71.41
2017-03-03T08:42:42.680Z,71.6
2017-03-03T08:43:42.674Z,72.17
2017-03-03T08:44:42.654Z,72.26
2017-03-03T08:45:42.638Z,72.64
2017-03-03T08:46:42.231Z,72.26
2017-03-03T08:47:42.595Z,72.36
2017-03-03T08:48:42.572Z,72.96
2017-03-03T08:49:42.559Z,72.58
2017-03-03T08:50:42.533Z,71.92
2017-03-03T08:51:42.524Z,72.67
2017-03-03T08:52:42.499Z,72.96
2017-03-03T08:53:42.479Z,74
2017-03-03T08:54:42.478Z,74.57
2017-03-03T08:55:42.450Z,75.23
2017-03-03T08:56:42.458Z,75.89
2017-03-03T08:57:42.027Z,76.26
2017-03-03T08:58:42.405Z,76.51
2017-03-03T08:59:42.394Z,76.04
2017-03-03T09:00:42.378Z,76.23
2017-03-03T09:01:42.351Z,76.26
2017-03-03T09:02:42.328Z,76.64
2017-03-03T09:03:42.326Z,78.31
2017-03-03T09:04:42.297Z,77.93
2017-03-03T09:05:55.913Z,78.12
2017-03-03T09:06:55.650Z,78.4
2017-03-03T09:07:42.247Z,78.87
2017-03-03T09:08:42.240Z,79.53
2017-03-03T09:09:42.211Z,79.53
2017-03-03T09:10:42.204Z,79.53
2017-03-03T09:11:42.199Z,79.35
2017-03-03T09:12:42.157Z,78.87
2017-03-03T09:13:42.144Z,79.35
2017-03-03T09:14:42.134Z,80.85
2017-03-03T09:15:42.108Z,80.76
2017-03-03T09:16:42.304Z,80.29
2017-03-03T09:17:42.085Z,79.67
2017-03-03T09:18:42.047Z,80.52
2017-03-03T09:19:42.059Z,81.56
2017-03-03T09:20:42.031Z,81.8
2017-03-03T09:21:42.001Z,82.41
2017-03-03T09:22:42.010Z,82.75
2017-03-03T09:23:41.978Z,83.22
2017-03-03T09:24:41.963Z,82.84
2017-03-03T09:25:41.955Z,83.97
2017-03-03T09:26:41.916Z,84.35
2017-03-03T09:27:41.911Z,84.26
2017-03-03T09:28:41.888Z,83.73
2017-03-03T09:29:41.858Z,84.49
2017-03-03T09:30:41.857Z,84.68
2017-03-03T09:31:41.835Z,85.72
2017-03-03T09:32:41.814Z,86
2017-03-03T09:33:41.791Z,86.33
2017-03-03T09:34:41.391Z,86.52
2017-03-03T09:35:41.576Z,86.1
2017-03-03T09:36:41.358Z,85.72
2017-03-03T09:37:41.330Z,86.38
2017-03-03T09:38:41.315Z,86.85
2017-03-03T09:39:41.888Z,87.23
2017-03-03T09:40:41.288Z,87.79
2017-03-03T09:41:41.287Z,88.65
2017-03-03T09:42:41.632Z,88.93
2017-03-03T09:43:41.618Z,89.22
2017-03-03T09:44:41.241Z,88.55
2017-03-03T09:45:41.588Z,89.03
2017-03-03T09:46:41.772Z,89.78
2017-03-03T09:47:41.542Z,89.5
2017-03-03T09:48:41.533Z,89.78
2017-03-03T09:49:41.521Z,89.64
2017-03-03T09:50:41.507Z,90.2
2017-03-03T09:51:41.472Z,90.58
2017-03-03T09:52:41.460Z,91.48
2017-03-03T09:53:41.445Z,91.67
2017-03-03T09:54:41.450Z,90.91
2017-03-03T09:55:41.426Z,92
2017-03-03T09:56:41.411Z,92.33
2017-03-03T09:57:41.381Z,92.52
2017-03-03T09:58:41.354Z,92.85
2017-03-03T09:59:41.344Z,93.28
2017-03-03T10:00:41.327Z,93.18
2017-03-03T10:01:41.325Z,93.23
2017-03-03T10:02:41.304Z,93.89
2017-03-03T10:03:41.285Z,94.08
2017-03-03T10:04:41.282Z,93.75
2017-03-03T10:05:41.256Z,94.65
2017-03-03T10:06:41.244Z,94.79
2017-03-03T10:07:41.218Z,94.79
2017-03-03T10:08:41.205Z,95.45
2017-03-03T10:09:41.185Z,95.07
2017-03-03T10:10:41.159Z,96.45
2017-03-03T10:11:41.156Z,96.02
2017-03-03T10:12:40.754Z,95.83
2017-03-03T10:13:40.757Z,95.69
2017-03-03T10:14:41.092Z,95.88
2017-03-03T10:15:41.093Z,95.69
2017-03-03T10:16:41.066Z,95.69
2017-03-03T10:17:41.052Z,96.35
2017-03-03T10:18:41.027Z,96.92
2017-03-03T10:19:41.009Z,97.39
2017-03-03T10:20:41.011Z,98.57
2017-03-03T10:21:40.984Z,97.91
2017-03-03T10:22:40.970Z,97.53
2017-03-03T10:23:40.940Z,98.14
2017-03-03T10:24:40.947Z,98.85
2017-03-03T10:25:40.916Z,98.66
2017-03-03T10:26:40.905Z,98.95
2017-03-03T10:27:40.875Z,99.61
2017-03-03T10:28:40.873Z,99.14
2017-03-03T10:29:40.859Z,98.85
2017-03-03T10:30:40.833Z,99.19
2017-03-03T10:31:40.828Z,99.14
2017-03-03T10:32:40.816Z,99.23
2017-03-03T10:33:40.782Z,99.38
2017-03-03T10:34:40.766Z,99.85
2017-03-03T10:35:40.738Z,99.99
2017-03-03T10:36:40.729Z,99.71
2017-03-03T10:37:40.715Z,99.99
2017-03-03T10:38:40.690Z,99.99
2017-03-03T10:39:40.666Z,99.99
2017-03-03T10:40:40.647Z,99.99
2017-03-03T10:41:40.649Z,99.99
2017-03-03T10:42:40.628Z,99.99
2017-03-03T10:43:40.592Z,99.99
2017-03-03T10:44:40.587Z,99.85
2017-03-03T10:45:40.556Z,99.99
2017-03-03T10:46:40.562Z,99.99
2017-03-03T10:47:40.527Z,99.99
2017-03-03T10:48:40.523Z,99.99
2017-03-03T10:49:40.494Z,99.95
2017-03-03T10:50:40.477Z,99.43
2017-03-03T10:51:40.467Z,99.99
2017-03-03T10:52:40.447Z,99.95
2017-03-03T10:53:40.424Z,99.99
2017-03-03T10:54:40.423Z,99.62
2017-03-03T10:55:40.400Z,99.99
2017-03-03T10:56:40.380Z,99.99
2017-03-03T10:57:40.356Z,99.99
2017-03-03T10:58:40.343Z,99.99
2017-03-03T10:59:40.335Z,99.99
2017-03-03T11:00:40.316Z,99.99
2017-03-03T11:01:40.289Z,99.99
2017-03-03T11:02:40.272Z,99.99
2017-03-03T11:03:40.268Z,99.99
2017-03-03T11:04:40.241Z,99.99
2017-03-03T11:05:40.224Z,99.99
2017-03-03T11:06:40.206Z,99.99
2017-03-03T11:07:40.204Z,99.99
2017-03-03T11:08:40.197Z,99.99
2017-03-03T11:09:40.160Z,99.99
2017-03-03T11:10:40.156Z,99.99
2017-03-03T11:11:40.124Z,99.99
2017-03-03T11:12:40.124Z,99.99
2017-03-03T11:13:40.117Z,99.99
2017-03-03T11:14:40.090Z,99.85
2017-03-03T11:15:39.688Z,99.52
2017-03-03T11:16:40.059Z,98.86
2017-03-03T11:17:40.055Z,99.15
2017-03-03T11:18:40.019Z,99.77
2017-03-03T11:19:40.013Z,99.33
2017-03-03T11:20:39.606Z,98.68
2017-03-03T11:21:39.982Z,98.91
2017-03-03T11:22:39.967Z,99.71
2017-03-03T11:23:39.565Z,99.15
2017-03-03T11:24:39.933Z,99.24
2017-03-03T11:25:39.916Z,98.54
2017-03-03T11:26:39.913Z,98.82
2017-03-03T11:27:39.905Z,98.49
2017-03-03T11:28:39.881Z,98.11
2017-03-03T11:29:39.477Z,97.92
2017-03-03T11:30:39.848Z,97.97
2017-03-03T11:31:39.829Z,97.97
2017-03-03T11:32:39.818Z,97.59
2017-03-03T11:33:39.797Z,98.02
2017-03-03T11:34:39.811Z,98.3
2017-03-03T11:35:39.775Z,98.11
2017-03-03T11:36:39.770Z,98.21
2017-03-03T11:37:39.758Z,98.3
2017-03-03T11:38:39.735Z,98.02
2017-03-03T11:39:39.722Z,97.92
2017-03-03T11:40:39.705Z,97.83
2017-03-03T11:41:39.699Z,98.02
2017-03-03T11:42:39.698Z,98.02
2017-03-03T11:43:39.672Z,98.3
2017-03-03T11:44:39.658Z,98.96
2017-03-03T11:45:39.647Z,99.62
2017-03-03T11:46:39.622Z,99.1
2017-03-03T11:47:39.617Z,99.48
2017-03-03T11:48:39.604Z,99.43
2017-03-03T11:49:39.589Z,99.52
2017-03-03T11:50:39.569Z,99.52
2017-03-03T11:51:39.554Z,99.99
2017-03-03T11:52:39.534Z,99.66
2017-03-03T11:53:39.150Z,99.24
2017-03-03T11:54:39.524Z,99.52
2017-03-03T11:55:39.508Z,99.2
2017-03-03T11:56:39.482Z,98.82
2017-03-03T11:57:39.480Z,98.77
2017-03-03T11:58:39.471Z,97.83
2017-03-03T11:59:39.453Z,98.35
2017-03-03T12:00:39.428Z,97.97
2017-03-03T12:01:39.438Z,99.99
2017-03-03T12:02:39.409Z,99.95
2017-03-03T12:03:39.383Z,99.57
2017-03-03T12:04:39.373Z,99.71
2017-03-03T12:05:39.379Z,99.77
2017-03-03T12:06:39.362Z,99.1
2017-03-03T12:07:39.343Z,99.39
2017-03-03T12:08:38.954Z,99.48
2017-03-03T12:09:39.303Z,98.82
2017-03-03T12:10:39.300Z,98.68
2017-03-03T12:11:39.275Z,99.15
2017-03-03T12:12:39.263Z,98.68
2017-03-03T12:13:38.866Z,98.49
2017-03-03T12:14:39.249Z,98.63
2017-03-03T12:15:39.223Z,98.82
2017-03-03T12:16:39.209Z,99.34
2017-03-03T12:17:39.217Z,99.33
2017-03-03T12:18:39.205Z,99.29
2017-03-03T12:19:39.168Z,98.77
2017-03-03T12:20:39.183Z,98.39
2017-03-03T12:21:39.145Z,98.35
2017-03-03T12:22:39.132Z,98.25
2017-03-03T12:23:39.125Z,97.97
2017-03-03T12:24:39.126Z,98.97
2017-03-03T12:25:39.116Z,99.77
2017-03-03T12:26:38.698Z,99.95
2017-03-03T12:27:39.071Z,99.76
2017-03-03T12:28:39.061Z,99.57
2017-03-03T12:29:39.047Z,99.43
2017-03-03T12:30:39.035Z,99.2
2017-03-03T12:31:39.014Z,98.77
2017-03-03T12:32:39.002Z,98.58
2017-03-03T12:33:38.997Z,98.63
2017-03-03T12:34:38.973Z,98.3
2017-03-03T12:35:38.996Z,98.78
2017-03-03T12:36:38.959Z,98.54
2017-03-03T12:37:38.943Z,98.77
2017-03-03T12:38:38.944Z,99.29
2017-03-03T12:39:38.924Z,98.91
2017-03-03T12:40:38.893Z,99.2
2017-03-03T12:41:38.892Z,99.24
2017-03-03T12:42:38.878Z,99.24
2017-03-03T12:43:38.862Z,99.2
2017-03-03T12:44:38.842Z,99.1
2017-03-03T12:45:38.836Z,99.24
2017-03-03T12:46:38.826Z,99.39
2017-03-03T12:47:38.824Z,99.71
2017-03-03T12:48:38.788Z,99.85
2017-03-03T12:49:38.402Z,99.99
2017-03-03T12:50:38.763Z,99.85
2017-03-03T12:51:38.753Z,99.85
2017-03-03T12:52:38.729Z,99.85
2017-03-03T12:53:38.332Z,99.95
2017-03-03T12:54:38.715Z,99.9
2017-03-03T12:55:38.705Z,99.9
2017-03-03T12:56:38.692Z,99.99